アトランタ の空港の天気 - METARとTAF

ハーツフィールド・ジャクソン・アトランタ国際空港 ( KATL / ATL ) - アメリカ合衆国 ジョージア州アトランタ
飛行場実況気象(Metar)
観測時間07/21 19:52 EDT (07/21 23:52 UTC)
風向・風速西南西 2m/s
視程10km以上
天気現象
少しの雲 雲底高度 1680m
全天の4割程度の雲 雲底高度 7620m
気温32.2℃
湿度54%
気圧1014.7hPa
METARKATL 212352Z 24004KT 10SM FEW055TCU SCT250 32/22 A3000 RMK AO2 SLP147 TCU OHD T03220217 10344 20322 53002
過去の天気等 Google飛行場航空写真 Wunderground天気予報

過去48時間のMETAR

飛行場予報(TAF)
発表時間: 7/21 19:34 EDT (7/21 23:34 UTC)
予報対象時間: 21日20時 EDT ~ 23日2時 EDT
風向・風速南西 2m/s
視程10km以上
少しの雲 雲底高度 1,830m
全天の4割程度の雲 雲底高度 7,620m
22日10時 EDT から
風向・風速西南西 3m/s
視程10km以上
少しの雲 雲底高度 910m
全天の4割程度の雲 雲底高度 7,620m
22日12時 EDT から
風向・風速南西 4m/s
視程10km以上
全天の4割程度の雲 雲底高度 1,220m
22日15時 EDT から
風向・風速南西 5m/s
視程10km以上
天気現象周辺でしゅう雨
全天の4割程度の雲 雲底高度 1,520m
22日21時 EDT から
風向・風速南西 2m/s
視程10km以上
少しの雲 雲底高度 1,830m
全天の4割程度の雲 雲底高度 7,620m
KATL 212334Z 2200/2306 23004KT P6SM FEW060 SCT250
FM221400 25005KT P6SM FEW030 SCT250
FM221600 23008KT P6SM SCT040
FM221900 23009KT P6SM VCSH SCT050
FM230100 23004KT P6SM FEW060 SCT250